Terminal Aerodrome Forecast
Issued by NWS

Home | Current Version | Previous Version | Graphics & Text | Print | Product List | Glossary Off
Versions: 1 2 3 4 5 6 7 8 9 10 11 12 13 14

231
FTUS42 KMHX 310530
TAFPGV
TAF
KPGV 310530Z 3106/0106 VRB03KT P6SM BKN150
     FM311600 22008KT P6SM VCTS BKN050CB
     FM010200 20005KT P6SM BKN100
      AMD LTD TO CLD VIS AND WIND=

USA.gov is the U.S. government's official web portal to all federal, state and local government web resources and services.